sensor_id;sensor_type;location;lat;lon;timestamp;pressure;altitude;pressure_sealevel;temperature;humidity
74431;BME280;62863;52.062;23.764;2023-07-29T00:00:55;1015.4;;;18.5;81.2
74431;BME280;62863;52.062;23.764;2023-07-29T00:05:41;1015.5;;;18.6;81.9
74431;BME280;62863;52.062;23.764;2023-07-29T00:10:26;1015.5;;;18.6;82.6
74431;BME280;62863;52.062;23.764;2023-07-29T00:15:30;1015.5;;;18.6;82.7
74431;BME280;62863;52.062;23.764;2023-07-29T00:20:38;1015.5;;;18.6;82.6
74431;BME280;62863;52.062;23.764;2023-07-29T00:25:18;1015.5;;;18.7;82.6
74431;BME280;62863;52.062;23.764;2023-07-29T00:30:32;1015.6;;;18.7;82.5
74431;BME280;62863;52.062;23.764;2023-07-29T00:35:54;1015.6;;;18.7;82.4
74431;BME280;62863;52.062;23.764;2023-07-29T00:40:38;1015.7;;;18.7;81.6
74431;BME280;62863;52.062;23.764;2023-07-29T00:45:22;1015.7;;;18.7;81.3
74431;BME280;62863;52.062;23.764;2023-07-29T00:50:30;1015.8;;;18.7;81.2
74431;BME280;62863;52.062;23.764;2023-07-29T00:55:18;1015.9;;;18.8;81.3
74431;BME280;62863;52.062;23.764;2023-07-29T01:00:18;1015.9;;;18.8;81.2
74431;BME280;62863;52.062;23.764;2023-07-29T01:05:29;1016;;;18.8;81.6
74431;BME280;62863;52.062;23.764;2023-07-29T01:10:46;1016;;;18.8;80.9
74431;BME280;62863;52.062;23.764;2023-07-29T01:15:28;1016.1;;;18.7;80.1
74431;BME280;62863;52.062;23.764;2023-07-29T01:20:40;1016.1;;;18.8;79.5
74431;BME280;62863;52.062;23.764;2023-07-29T01:25:14;1016.1;;;18.8;79
74431;BME280;62863;52.062;23.764;2023-07-29T01:30:28;1016.2;;;18.8;78.8
74431;BME280;62863;52.062;23.764;2023-07-29T01:35:27;1016.2;;;18.7;78.3
74431;BME280;62863;52.062;23.764;2023-07-29T01:40:38;1016.2;;;18.7;77.9
74431;BME280;62863;52.062;23.764;2023-07-29T01:45:34;1016.2;;;18.7;77.9
74431;BME280;62863;52.062;23.764;2023-07-29T01:50:38;1016.2;;;18.7;77.8
74431;BME280;62863;52.062;23.764;2023-07-29T01:55:56;1016.3;;;18.7;77.8
74431;BME280;62863;52.062;23.764;2023-07-29T02:00:46;1016.4;;;18.7;77.8
74431;BME280;62863;52.062;23.764;2023-07-29T02:05:18;1016.4;;;18.7;78.5
74431;BME280;62863;52.062;23.764;2023-07-29T02:10:56;1016.4;;;18.6;78.5
74431;BME280;62863;52.062;23.764;2023-07-29T02:15:56;1016.4;;;18.6;78.6
74431;BME280;62863;52.062;23.764;2023-07-29T02:20:56;1016.5;;;18.6;79
74431;BME280;62863;52.062;23.764;2023-07-29T02:25:56;1016.5;;;18.4;79.2
74431;BME280;62863;52.062;23.764;2023-07-29T02:31:15;1016.6;;;18.3;79.5
74431;BME280;62863;52.062;23.764;2023-07-29T02:35:18;1016.6;;;18.1;79.3
74431;BME280;62863;52.062;23.764;2023-07-29T02:40:14;1016.6;;;18;79.2
74431;BME280;62863;52.062;23.764;2023-07-29T02:45:46;1016.6;;;17.8;79.4
74431;BME280;62863;52.062;23.764;2023-07-29T02:50:56;1016.7;;;17.7;79.6
74431;BME280;62863;52.062;23.764;2023-07-29T02:55:42;1016.8;;;17.7;79.7
74431;BME280;62863;52.062;23.764;2023-07-29T03:00:46;1016.8;;;17.6;80
74431;BME280;62863;52.062;23.764;2023-07-29T03:05:26;1016.9;;;17.6;80.8
74431;BME280;62863;52.062;23.764;2023-07-29T03:10:18;1016.9;;;17.7;80.8
74431;BME280;62863;52.062;23.764;2023-07-29T03:16:03;1016.9;;;17.7;80.8
74431;BME280;62863;52.062;23.764;2023-07-29T03:20:14;1017;;;17.8;80.6
74431;BME280;62863;52.062;23.764;2023-07-29T03:25:26;1017;;;17.8;80.3
74431;BME280;62863;52.062;23.764;2023-07-29T03:30:42;1017;;;17.9;80
74431;BME280;62863;52.062;23.764;2023-07-29T03:35:54;1017.1;;;17.9;79.1
74431;BME280;62863;52.062;23.764;2023-07-29T03:40:28;1017.1;;;18;78.7
74431;BME280;62863;52.062;23.764;2023-07-29T03:45:18;1017.2;;;18.1;78.5
74431;BME280;62863;52.062;23.764;2023-07-29T03:50:42;1017.2;;;18.2;78
74431;BME280;62863;52.062;23.764;2023-07-29T03:55:18;1017.2;;;18.3;77.8
74431;BME280;62863;52.062;23.764;2023-07-29T04:00:26;1017.3;;;18.5;77.7
74431;BME280;62863;52.062;23.764;2023-07-29T04:05:14;1017.3;;;18.8;77.2
74431;BME280;62863;52.062;23.764;2023-07-29T04:10:56;1017.3;;;19;76.5
74431;BME280;62863;52.062;23.764;2023-07-29T04:15:14;1017.4;;;19.2;76.1
74431;BME280;62863;52.062;23.764;2023-07-29T04:20:14;1017.4;;;19.5;75.1
74431;BME280;62863;52.062;23.764;2023-07-29T04:25:30;1017.4;;;19.8;74.1
74431;BME280;62863;52.062;23.764;2023-07-29T04:30:42;1017.3;;;19.9;72.9
74431;BME280;62863;52.062;23.764;2023-07-29T04:35:22;1017.4;;;19.9;72.2
74431;BME280;62863;52.062;23.764;2023-07-29T04:40:32;1017.4;;;19.9;72.2
74431;BME280;62863;52.062;23.764;2023-07-29T04:45:32;1017.5;;;19.9;71.9
74431;BME280;62863;52.062;23.764;2023-07-29T04:50:14;1017.5;;;19.8;71.3
74431;BME280;62863;52.062;23.764;2023-07-29T04:55:32;1017.6;;;19.9;70.4
74431;BME280;62863;52.062;23.764;2023-07-29T05:00:56;1017.6;;;20.2;70
74431;BME280;62863;52.062;23.764;2023-07-29T05:05:40;1017.6;;;20.4;69.2
74431;BME280;62863;52.062;23.764;2023-07-29T05:10:26;1017.6;;;20.6;68.3
74431;BME280;62863;52.062;23.764;2023-07-29T05:15:14;1017.6;;;20.9;67.1
74431;BME280;62863;52.062;23.764;2023-07-29T05:20:18;1017.7;;;21.3;66
74431;BME280;62863;52.062;23.764;2023-07-29T05:25:42;1017.7;;;21.8;65.2
74431;BME280;62863;52.062;23.764;2023-07-29T05:30:32;1017.7;;;22.1;62.8
74431;BME280;62863;52.062;23.764;2023-07-29T05:35:46;1017.7;;;22.5;61.3
74431;BME280;62863;52.062;23.764;2023-07-29T05:40:40;1017.7;;;22.8;59.2
74431;BME280;62863;52.062;23.764;2023-07-29T05:45:22;1017.8;;;22.7;58.7
74431;BME280;62863;52.062;23.764;2023-07-29T05:50:26;1017.8;;;22.9;58
74431;BME280;62863;52.062;23.764;2023-07-29T05:55:14;1017.6;;;28.3;45.4
74431;BME280;62863;52.062;23.764;2023-07-29T06:00:26;1017.5;;;33.9;36.3
74431;BME280;62863;52.062;23.764;2023-07-29T06:05:54;1017.5;;;37.8;31.7
74431;BME280;62863;52.062;23.764;2023-07-29T06:10:30;1017.4;;;40.4;28.8
74431;BME280;62863;52.062;23.764;2023-07-29T06:15:28;1017.4;;;42.1;26.7
74431;BME280;62863;52.062;23.764;2023-07-29T06:20:54;1017.5;;;43.1;25
74431;BME280;62863;52.062;23.764;2023-07-29T06:25:16;1017.5;;;43.6;23.3
74431;BME280;62863;52.062;23.764;2023-07-29T06:30:24;1017.5;;;43.2;21
74431;BME280;62863;52.062;23.764;2023-07-29T06:35:46;1017.6;;;40.6;23.1
74431;BME280;62863;52.062;23.764;2023-07-29T06:40:56;1017.6;;;38.6;25
74431;BME280;62863;52.062;23.764;2023-07-29T06:45:56;1017.6;;;38.2;25.5
74431;BME280;62863;52.062;23.764;2023-07-29T06:50:30;1017.5;;;40;23.2
74431;BME280;62863;52.062;23.764;2023-07-29T06:55:56;1017.6;;;39.3;23.9
74431;BME280;62863;52.062;23.764;2023-07-29T07:00:54;1017.6;;;38.6;25
74431;BME280;62863;52.062;23.764;2023-07-29T07:05:40;1017.7;;;38.3;25.4
74431;BME280;62863;52.062;23.764;2023-07-29T07:10:14;1017.7;;;40.8;22.8
74431;BME280;62863;52.062;23.764;2023-07-29T07:15:54;1017.7;;;39.9;23.6
74431;BME280;62863;52.062;23.764;2023-07-29T07:20:34;1017.6;;;41.4;22.1
74431;BME280;62863;52.062;23.764;2023-07-29T07:25:42;1017.6;;;43.1;19.8
74431;BME280;62863;52.062;23.764;2023-07-29T07:30:30;1017.6;;;43.2;18.8
74431;BME280;62863;52.062;23.764;2023-07-29T07:35:14;1017.8;;;38.8;23
74431;BME280;62863;52.062;23.764;2023-07-29T07:40:56;1017.8;;;38.7;23
74431;BME280;62863;52.062;23.764;2023-07-29T07:45:14;1017.9;;;38.3;23.2
74431;BME280;62863;52.062;23.764;2023-07-29T07:50:14;1017.8;;;39.8;21.3
74431;BME280;62863;52.062;23.764;2023-07-29T07:55:38;1017.8;;;39.6;21.4
74431;BME280;62863;52.062;23.764;2023-07-29T08:01:00;1017.8;;;40.5;21.8
74431;BME280;62863;52.062;23.764;2023-07-29T08:05:28;1017.7;;;40.8;21.6
74431;BME280;62863;52.062;23.764;2023-07-29T08:10:14;1017.7;;;40.4;21.4
74431;BME280;62863;52.062;23.764;2023-07-29T08:15:34;1017.7;;;40.1;21.5
74431;BME280;62863;52.062;23.764;2023-07-29T08:20:14;1017.6;;;39.9;20.9
74431;BME280;62863;52.062;23.764;2023-07-29T08:25:14;1017.6;;;39.5;21.3
74431;BME280;62863;52.062;23.764;2023-07-29T08:30:18;1017.7;;;36.8;23.7
74431;BME280;62863;52.062;23.764;2023-07-29T08:35:54;1017.8;;;33.7;27
74431;BME280;62863;52.062;23.764;2023-07-29T08:40:28;1017.8;;;34.8;26.8
74431;BME280;62863;52.062;23.764;2023-07-29T08:45:38;1017.9;;;33.6;28.9
74431;BME280;62863;52.062;23.764;2023-07-29T08:50:54;1018;;;32.4;29.9
74431;BME280;62863;52.062;23.764;2023-07-29T08:55:42;1018;;;32.6;30.3
74431;BME280;62863;52.062;23.764;2023-07-29T09:00:14;1017.9;;;32.9;30.1
74431;BME280;62863;52.062;23.764;2023-07-29T09:05:14;1017.9;;;32.8;29.7
74431;BME280;62863;52.062;23.764;2023-07-29T09:10:30;1017.9;;;32.1;29.9
74431;BME280;62863;52.062;23.764;2023-07-29T09:15:32;1018;;;31.2;31.1
74431;BME280;62863;52.062;23.764;2023-07-29T09:20:32;1018.1;;;30.2;32.5
74431;BME280;62863;52.062;23.764;2023-07-29T09:26:00;1018;;;30.3;32
74431;BME280;62863;52.062;23.764;2023-07-29T09:30:38;1017.9;;;30.7;32.3
74431;BME280;62863;52.062;23.764;2023-07-29T09:35:27;1018;;;30.6;32.3
74431;BME280;62863;52.062;23.764;2023-07-29T09:40:26;1018;;;30.3;33.3
74431;BME280;62863;52.062;23.764;2023-07-29T09:45:18;1018;;;30.9;32.5
74431;BME280;62863;52.062;23.764;2023-07-29T09:50:18;1018;;;31.3;32.9
74431;BME280;62863;52.062;23.764;2023-07-29T09:55:32;1018.1;;;30.6;32.9
74431;BME280;62863;52.062;23.764;2023-07-29T10:00:16;1018.1;;;30.4;33.1
74431;BME280;62863;52.062;23.764;2023-07-29T10:05:39;1018.1;;;30.4;33.6
74431;BME280;62863;52.062;23.764;2023-07-29T10:10:38;1018;;;30.7;33.2
74431;BME280;62863;52.062;23.764;2023-07-29T10:15:28;1018;;;30.9;32
74431;BME280;62863;52.062;23.764;2023-07-29T10:20:12;1018;;;30.5;32.6
74431;BME280;62863;52.062;23.764;2023-07-29T10:25:46;1018.1;;;29.8;34.3
74431;BME280;62863;52.062;23.764;2023-07-29T10:30:54;1018.1;;;29.7;34.8
74431;BME280;62863;52.062;23.764;2023-07-29T10:35:14;1018;;;30.2;32.3
74431;BME280;62863;52.062;23.764;2023-07-29T10:40:46;1018;;;29.5;32.7
74431;BME280;62863;52.062;23.764;2023-07-29T10:45:55;1018;;;29.6;32.9
74431;BME280;62863;52.062;23.764;2023-07-29T10:50:44;1018;;;30;32.5
74431;BME280;62863;52.062;23.764;2023-07-29T10:55:30;1018;;;30;32.8
74431;BME280;62863;52.062;23.764;2023-07-29T11:00:44;1018;;;30.4;33.5
74431;BME280;62863;52.062;23.764;2023-07-29T11:05:54;1017.9;;;30.9;32.9
74431;BME280;62863;52.062;23.764;2023-07-29T11:11:02;1017.9;;;31.4;32.1
74431;BME280;62863;52.062;23.764;2023-07-29T11:15:54;1017.9;;;31.3;30.7
74431;BME280;62863;52.062;23.764;2023-07-29T11:20:56;1017.9;;;31.5;31.1
74431;BME280;62863;52.062;23.764;2023-07-29T11:25:26;1017.8;;;31.8;29.9
74431;BME280;62863;52.062;23.764;2023-07-29T11:30:24;1017.8;;;31.8;29.3
74431;BME280;62863;52.062;23.764;2023-07-29T11:35:44;1017.8;;;31.6;29.4
74431;BME280;62863;52.062;23.764;2023-07-29T11:40:55;1017.8;;;31.4;28.7
74431;BME280;62863;52.062;23.764;2023-07-29T11:45:42;1017.8;;;31.1;29.5
74431;BME280;62863;52.062;23.764;2023-07-29T11:50:42;1017.8;;;31.3;30.3
74431;BME280;62863;52.062;23.764;2023-07-29T11:55:38;1017.7;;;31.6;30.3
74431;BME280;62863;52.062;23.764;2023-07-29T12:00:18;1017.7;;;31.5;29.6
74431;BME280;62863;52.062;23.764;2023-07-29T12:05:28;1017.7;;;31.4;30.2
74431;BME280;62863;52.062;23.764;2023-07-29T12:10:32;1017.7;;;31.2;30.2
74431;BME280;62863;52.062;23.764;2023-07-29T12:16:00;1017.8;;;30.3;30.2
74431;BME280;62863;52.062;23.764;2023-07-29T12:20:54;1017.7;;;30.7;29.3
74431;BME280;62863;52.062;23.764;2023-07-29T12:25:44;1017.6;;;31.2;29.9
74431;BME280;62863;52.062;23.764;2023-07-29T12:30:28;1017.6;;;31.6;28.8
74431;BME280;62863;52.062;23.764;2023-07-29T12:35:22;1017.6;;;31.3;29.1
74431;BME280;62863;52.062;23.764;2023-07-29T12:40:42;1017.6;;;30.6;30.2
74431;BME280;62863;52.062;23.764;2023-07-29T12:45:35;1017.7;;;30.6;29.9
74431;BME280;62863;52.062;23.764;2023-07-29T12:50:14;1017.7;;;30.8;29.7
74431;BME280;62863;52.062;23.764;2023-07-29T12:55:42;1017.6;;;30.5;29.9
74431;BME280;62863;52.062;23.764;2023-07-29T13:00:54;1017.6;;;30;31.3
74431;BME280;62863;52.062;23.764;2023-07-29T13:05:24;1017.6;;;30.1;29.8
74431;BME280;62863;52.062;23.764;2023-07-29T13:10:14;1017.5;;;30.4;29.8
74431;BME280;62863;52.062;23.764;2023-07-29T13:15:42;1017.4;;;30.9;29.7
74431;BME280;62863;52.062;23.764;2023-07-29T13:20:44;1017.4;;;31;29.1
74431;BME280;62863;52.062;23.764;2023-07-29T13:25:22;1017.4;;;30.7;29
74431;BME280;62863;52.062;23.764;2023-07-29T13:30:14;1017.4;;;30.2;31
74431;BME280;62863;52.062;23.764;2023-07-29T13:35:54;1017.4;;;30;31.8
74431;BME280;62863;52.062;23.764;2023-07-29T13:40:18;1017.4;;;29.3;32.4
74431;BME280;62863;52.062;23.764;2023-07-29T13:45:28;1017.5;;;28.7;33
74431;BME280;62863;52.062;23.764;2023-07-29T13:50:50;1017.4;;;29.1;31.9
74431;BME280;62863;52.062;23.764;2023-07-29T13:55:42;1017.3;;;29.9;31.2
74431;BME280;62863;52.062;23.764;2023-07-29T14:00:14;1017.3;;;30.3;30.9
74431;BME280;62863;52.062;23.764;2023-07-29T14:05:48;1017.3;;;30.6;30.8
74431;BME280;62863;52.062;23.764;2023-07-29T14:10:36;1017.2;;;30.7;30
74431;BME280;62863;52.062;23.764;2023-07-29T14:15:18;1017.1;;;30.8;29.7
74431;BME280;62863;52.062;23.764;2023-07-29T14:20:32;1017;;;30.8;30.1
74431;BME280;62863;52.062;23.764;2023-07-29T14:25:54;1017;;;30.6;31
74431;BME280;62863;52.062;23.764;2023-07-29T14:30:38;1017;;;30.3;30.2
74431;BME280;62863;52.062;23.764;2023-07-29T14:35:38;1016.9;;;30.1;30.4
74431;BME280;62863;52.062;23.764;2023-07-29T14:40:28;1016.9;;;30.1;29.9
74431;BME280;62863;52.062;23.764;2023-07-29T14:45:28;1016.9;;;30.1;30.2
74431;BME280;62863;52.062;23.764;2023-07-29T14:50:18;1016.9;;;30.1;30.8
74431;BME280;62863;52.062;23.764;2023-07-29T14:55:54;1016.8;;;30;30.9
74431;BME280;62863;52.062;23.764;2023-07-29T15:00:18;1016.8;;;29.8;31.2
74431;BME280;62863;52.062;23.764;2023-07-29T15:05:14;1016.9;;;29.7;31.4
74431;BME280;62863;52.062;23.764;2023-07-29T15:10:52;1016.8;;;29.7;30.8
74431;BME280;62863;52.062;23.764;2023-07-29T15:15:42;1016.8;;;29.6;31.2
74431;BME280;62863;52.062;23.764;2023-07-29T15:20:16;1016.8;;;29.6;31.7
74431;BME280;62863;52.062;23.764;2023-07-29T15:25:52;1016.7;;;29.6;32.2
74431;BME280;62863;52.062;23.764;2023-07-29T15:30:52;1016.7;;;29.6;32.9
74431;BME280;62863;52.062;23.764;2023-07-29T15:35:52;1016.8;;;29.5;31.7
74431;BME280;62863;52.062;23.764;2023-07-29T15:40:52;1016.8;;;29.3;31.3
74431;BME280;62863;52.062;23.764;2023-07-29T15:45:50;1016.8;;;29.1;32.2
74431;BME280;62863;52.062;23.764;2023-07-29T15:50:14;1016.8;;;29;32.7
74431;BME280;62863;52.062;23.764;2023-07-29T15:55:16;1016.8;;;28.7;33.5
74431;BME280;62863;52.062;23.764;2023-07-29T16:00:42;1016.9;;;28.6;33.3
74431;BME280;62863;52.062;23.764;2023-07-29T16:05:40;1016.9;;;28.4;33.7
74431;BME280;62863;52.062;23.764;2023-07-29T16:10:52;1016.9;;;28.1;35
74431;BME280;62863;52.062;23.764;2023-07-29T16:15:44;1016.9;;;28;34.8
74431;BME280;62863;52.062;23.764;2023-07-29T16:20:52;1016.9;;;27.9;34.9
74431;BME280;62863;52.062;23.764;2023-07-29T16:25:16;1016.9;;;27.9;35.8
74431;BME280;62863;52.062;23.764;2023-07-29T16:30:14;1016.9;;;27.8;35.8
74431;BME280;62863;52.062;23.764;2023-07-29T16:35:32;1016.9;;;27.7;35.8
74431;BME280;62863;52.062;23.764;2023-07-29T16:40:52;1016.8;;;27.5;36.1
74431;BME280;62863;52.062;23.764;2023-07-29T16:45:28;1016.8;;;27.3;35.9
74431;BME280;62863;52.062;23.764;2023-07-29T16:50:44;1016.8;;;27;37.9
74431;BME280;62863;52.062;23.764;2023-07-29T16:55:24;1016.8;;;26.6;39.5
74431;BME280;62863;52.062;23.764;2023-07-29T17:00:22;1016.8;;;26.2;40.7
74431;BME280;62863;52.062;23.764;2023-07-29T17:05:52;1016.8;;;26;41.4
74431;BME280;62863;52.062;23.764;2023-07-29T17:10:32;1016.8;;;25.7;42.5
74431;BME280;62863;52.062;23.764;2023-07-29T17:15:14;1016.8;;;25.2;44.5
74431;BME280;62863;52.062;23.764;2023-07-29T17:20:42;1016.9;;;24.9;46.3
74431;BME280;62863;52.062;23.764;2023-07-29T17:25:54;1016.9;;;24.5;47.7
74431;BME280;62863;52.062;23.764;2023-07-29T17:30:18;1017;;;24.3;48.5
74431;BME280;62863;52.062;23.764;2023-07-29T17:35:26;1017;;;24;50
74431;BME280;62863;52.062;23.764;2023-07-29T17:40:40;1017;;;23.7;50.7
74431;BME280;62863;52.062;23.764;2023-07-29T17:45:32;1017;;;23.4;51.9
74431;BME280;62863;52.062;23.764;2023-07-29T17:50:26;1017;;;23.1;52.7
74431;BME280;62863;52.062;23.764;2023-07-29T17:55:28;1017;;;22.8;53.7
74431;BME280;62863;52.062;23.764;2023-07-29T18:00:52;1017;;;22.6;54.7
74431;BME280;62863;52.062;23.764;2023-07-29T18:05:28;1017;;;22.4;56.1
74431;BME280;62863;52.062;23.764;2023-07-29T18:10:22;1017;;;22.2;57.1
74431;BME280;62863;52.062;23.764;2023-07-29T18:15:55;1017;;;21.9;57.8
74431;BME280;62863;52.062;23.764;2023-07-29T18:20:38;1017;;;21.7;58.5
74431;BME280;62863;52.062;23.764;2023-07-29T18:25:26;1017;;;21.4;59.4
74431;BME280;62863;52.062;23.764;2023-07-29T18:30:28;1017;;;21.2;60.1
74431;BME280;62863;52.062;23.764;2023-07-29T18:35:28;1017;;;21;60.4
74431;BME280;62863;52.062;23.764;2023-07-29T18:40:26;1017.1;;;20.8;60.9
74431;BME280;62863;52.062;23.764;2023-07-29T18:45:44;1017.1;;;20.7;61.1
74431;BME280;62863;52.062;23.764;2023-07-29T18:50:44;1017.2;;;20.5;61.8
74431;BME280;62863;52.062;23.764;2023-07-29T18:55:38;1017.3;;;20.4;62.1
74431;BME280;62863;52.062;23.764;2023-07-29T19:00:38;1017.3;;;20.3;62.2
74431;BME280;62863;52.062;23.764;2023-07-29T19:05:30;1017.2;;;20.2;62.5
74431;BME280;62863;52.062;23.764;2023-07-29T19:10:14;1017.2;;;20;63
74431;BME280;62863;52.062;23.764;2023-07-29T19:15:16;1017.1;;;19.9;63.5
74431;BME280;62863;52.062;23.764;2023-07-29T19:20:54;1017.2;;;19.8;64
74431;BME280;62863;52.062;23.764;2023-07-29T19:25:54;1017.2;;;19.7;65.2
74431;BME280;62863;52.062;23.764;2023-07-29T19:30:38;1017.2;;;19.6;65.5
74431;BME280;62863;52.062;23.764;2023-07-29T19:35:54;1017.2;;;19.5;64.9
74431;BME280;62863;52.062;23.764;2023-07-29T19:40:44;1017.1;;;19.5;64.9
74431;BME280;62863;52.062;23.764;2023-07-29T19:45:14;1017.1;;;19.4;65.3
74431;BME280;62863;52.062;23.764;2023-07-29T19:50:44;1017.1;;;19.4;65.9
74431;BME280;62863;52.062;23.764;2023-07-29T19:55:54;1017.1;;;19.3;65.8
74431;BME280;62863;52.062;23.764;2023-07-29T20:00:56;1017.1;;;19.3;65.3
74431;BME280;62863;52.062;23.764;2023-07-29T20:05:40;1017.1;;;19.2;65.6
74431;BME280;62863;52.062;23.764;2023-07-29T20:10:44;1017;;;19.1;65.6
74431;BME280;62863;52.062;23.764;2023-07-29T20:15:34;1016.9;;;19.1;65.7
74431;BME280;62863;52.062;23.764;2023-07-29T20:20:14;1016.8;;;19;66.2
74431;BME280;62863;52.062;23.764;2023-07-29T20:25:47;1016.8;;;18.9;67.2
74431;BME280;62863;52.062;23.764;2023-07-29T20:30:56;1016.8;;;18.9;67.1
74431;BME280;62863;52.062;23.764;2023-07-29T20:35:42;1016.8;;;18.9;66.3
74431;BME280;62863;52.062;23.764;2023-07-29T20:40:48;1016.8;;;18.9;66.7
74431;BME280;62863;52.062;23.764;2023-07-29T20:45:56;1016.7;;;18.8;66.5
74431;BME280;62863;52.062;23.764;2023-07-29T20:50:26;1016.8;;;18.8;66.6
74431;BME280;62863;52.062;23.764;2023-07-29T20:55:14;1016.8;;;18.8;65.6
74431;BME280;62863;52.062;23.764;2023-07-29T21:00:42;1016.8;;;18.8;65.4
74431;BME280;62863;52.062;23.764;2023-07-29T21:05:56;1016.8;;;18.8;65.3
74431;BME280;62863;52.062;23.764;2023-07-29T21:10:42;1016.8;;;18.9;65.4
74431;BME280;62863;52.062;23.764;2023-07-29T21:15:34;1016.8;;;18.8;65.6
74431;BME280;62863;52.062;23.764;2023-07-29T21:20:30;1016.8;;;18.8;66.7
74431;BME280;62863;52.062;23.764;2023-07-29T21:25:22;1016.8;;;18.8;66.5
74431;BME280;62863;52.062;23.764;2023-07-29T21:30:56;1016.8;;;18.9;66
74431;BME280;62863;52.062;23.764;2023-07-29T21:35:32;1016.8;;;18.9;66.3
74431;BME280;62863;52.062;23.764;2023-07-29T21:40:56;1016.8;;;19;65.9
74431;BME280;62863;52.062;23.764;2023-07-29T21:45:42;1016.8;;;19;65.7
74431;BME280;62863;52.062;23.764;2023-07-29T21:50:54;1016.8;;;19;65.1
74431;BME280;62863;52.062;23.764;2023-07-29T21:55:14;1016.7;;;19;64.9
74431;BME280;62863;52.062;23.764;2023-07-29T22:00:14;1016.7;;;19;65.2
74431;BME280;62863;52.062;23.764;2023-07-29T22:06:01;1016.7;;;19;65.3
74431;BME280;62863;52.062;23.764;2023-07-29T22:10:42;1016.6;;;19;65.3
74431;BME280;62863;52.062;23.764;2023-07-29T22:15:56;1016.6;;;19;65.3
74431;BME280;62863;52.062;23.764;2023-07-29T22:20:14;1016.6;;;19.1;65.3
74431;BME280;62863;52.062;23.764;2023-07-29T22:25:38;1016.6;;;19.2;65
74431;BME280;62863;52.062;23.764;2023-07-29T22:30:46;1016.6;;;19.3;65.2
74431;BME280;62863;52.062;23.764;2023-07-29T22:35:14;1016.5;;;19.4;64.8
74431;BME280;62863;52.062;23.764;2023-07-29T22:40:56;1016.5;;;19.5;64.6
74431;BME280;62863;52.062;23.764;2023-07-29T22:45:40;1016.5;;;19.6;64.5
74431;BME280;62863;52.062;23.764;2023-07-29T22:50:42;1016.4;;;19.6;63.9
74431;BME280;62863;52.062;23.764;2023-07-29T22:55:28;1016.4;;;19.7;63.9
74431;BME280;62863;52.062;23.764;2023-07-29T23:00:14;1016.4;;;19.7;64.2
74431;BME280;62863;52.062;23.764;2023-07-29T23:05:18;1016.3;;;19.7;64.3
74431;BME280;62863;52.062;23.764;2023-07-29T23:10:32;1016.2;;;19.7;64.4
74431;BME280;62863;52.062;23.764;2023-07-29T23:15:46;1016.2;;;19.7;64.7
74431;BME280;62863;52.062;23.764;2023-07-29T23:20:32;1016.2;;;19.7;64.5
74431;BME280;62863;52.062;23.764;2023-07-29T23:25:40;1016.1;;;19.7;64.5
74431;BME280;62863;52.062;23.764;2023-07-29T23:30:14;1016;;;19.7;64.4
74431;BME280;62863;52.062;23.764;2023-07-29T23:35:14;1016;;;19.8;64.3
74431;BME280;62863;52.062;23.764;2023-07-29T23:40:42;1016;;;19.8;64.2
74431;BME280;62863;52.062;23.764;2023-07-29T23:45:56;1015.9;;;19.8;63.9
74431;BME280;62863;52.062;23.764;2023-07-29T23:50:22;1015.9;;;19.8;64
74431;BME280;62863;52.062;23.764;2023-07-29T23:55:40;1015.8;;;19.8;64
